EGCN/DSA METAR and TAF weather

Enter ICAO airport designator
Station Type Date Time Source
EGCN METAR 2020/08/06 00:20 UTC NOAA

EGCN 060020Z 19010KT CAVOK 18/16 Q1012


Station Type Date Time Source
EGCN Decoded METAR 2020/08/06 00:20 UTC NOAA

Station name not available
Aug 05, 2020 - 08:20 PM EDT / 2020.08.06 0020 UTC
Wind: from the S (190 degrees) at 12 MPH (10 KT):0
Visibility: greater than 7 mile(s):0
Temperature: 64 F (18 C)
Dew Point: 60 F (16 C)
Relative Humidity: 88%
Pressure (altimeter): 29.88 in. Hg (1012 hPa)
ob: EGCN 060020Z 19010KT CAVOK 18/16 Q1012
cycle: 0

Station Type Date Time Source
EGCN TAF 2020/08/05 18:00 UTC NOAA

TAF EGCN 051659Z 0518/0618 20009KT 9999 FEW040 PROB40
TEMPO 0600/0608 BKN014

Example: see airport list